sensor_id;sensor_type;location;lat;lon;timestamp;P1;durP1;ratioP1;P2;durP2;ratioP2
47896;SDS011;39629;51.400;5.494;2022-12-29T00:04:09;3.17;;;1.40;;
47896;SDS011;39629;51.400;5.494;2022-12-29T00:09:15;2.60;;;1.30;;
47896;SDS011;39629;51.400;5.494;2022-12-29T00:14:17;3.22;;;1.63;;
47896;SDS011;39629;51.400;5.494;2022-12-29T00:19:48;3.47;;;1.60;;
47896;SDS011;39629;51.400;5.494;2022-12-29T00:25:09;2.55;;;1.38;;
47896;SDS011;39629;51.400;5.494;2022-12-29T00:30:30;3.17;;;1.20;;
47896;SDS011;39629;51.400;5.494;2022-12-29T00:35:50;1.63;;;1.20;;
47896;SDS011;39629;51.400;5.494;2022-12-29T00:40:57;2.30;;;0.98;;
47896;SDS011;39629;51.400;5.494;2022-12-29T00:46:16;1.52;;;1.00;;
47896;SDS011;39629;51.400;5.494;2022-12-29T00:51:17;2.25;;;1.00;;
47896;SDS011;39629;51.400;5.494;2022-12-29T00:56:20;1.63;;;0.90;;
47896;SDS011;39629;51.400;5.494;2022-12-29T01:01:22;3.60;;;0.90;;
47896;SDS011;39629;51.400;5.494;2022-12-29T01:06:23;3.00;;;0.90;;
47896;SDS011;39629;51.400;5.494;2022-12-29T01:11:26;1.92;;;0.70;;
47896;SDS011;39629;51.400;5.494;2022-12-29T01:16:28;2.88;;;0.90;;
47896;SDS011;39629;51.400;5.494;2022-12-29T01:21:30;1.77;;;0.73;;
47896;SDS011;39629;51.400;5.494;2022-12-29T01:26:33;1.55;;;0.70;;
47896;SDS011;39629;51.400;5.494;2022-12-29T01:31:35;1.98;;;0.60;;
47896;SDS011;39629;51.400;5.494;2022-12-29T01:36:37;1.00;;;0.40;;
47896;SDS011;39629;51.400;5.494;2022-12-29T01:41:40;1.95;;;0.70;;
47896;SDS011;39629;51.400;5.494;2022-12-29T01:46:42;3.60;;;0.93;;
47896;SDS011;39629;51.400;5.494;2022-12-29T01:51:50;1.30;;;0.55;;
47896;SDS011;39629;51.400;5.494;2022-12-29T01:56:55;1.70;;;0.40;;
47896;SDS011;39629;51.400;5.494;2022-12-29T02:02:00;1.17;;;0.50;;
47896;SDS011;39629;51.400;5.494;2022-12-29T02:07:03;1.90;;;0.50;;
47896;SDS011;39629;51.400;5.494;2022-12-29T02:12:11;2.80;;;0.50;;
47896;SDS011;39629;51.400;5.494;2022-12-29T02:17:13;1.60;;;0.50;;
47896;SDS011;39629;51.400;5.494;2022-12-29T02:22:23;3.20;;;0.77;;
47896;SDS011;39629;51.400;5.494;2022-12-29T02:27:36;2.33;;;0.60;;
47896;SDS011;39629;51.400;5.494;2022-12-29T02:32:54;1.98;;;0.50;;
47896;SDS011;39629;51.400;5.494;2022-12-29T02:38:12;1.70;;;0.63;;
47896;SDS011;39629;51.400;5.494;2022-12-29T02:43:23;2.17;;;0.50;;
47896;SDS011;39629;51.400;5.494;2022-12-29T02:48:29;2.08;;;0.55;;
47896;SDS011;39629;51.400;5.494;2022-12-29T02:53:35;1.92;;;0.40;;
47896;SDS011;39629;51.400;5.494;2022-12-29T02:58:55;3.10;;;0.50;;
47896;SDS011;39629;51.400;5.494;2022-12-29T03:04:08;3.08;;;0.73;;
47896;SDS011;39629;51.400;5.494;2022-12-29T03:09:21;1.58;;;0.50;;
47896;SDS011;39629;51.400;5.494;2022-12-29T03:14:31;1.95;;;0.45;;
47896;SDS011;39629;51.400;5.494;2022-12-29T03:19:59;2.10;;;0.60;;
47896;SDS011;39629;51.400;5.494;2022-12-29T03:25:06;2.28;;;0.40;;
47896;SDS011;39629;51.400;5.494;2022-12-29T03:30:11;2.45;;;0.45;;
47896;SDS011;39629;51.400;5.494;2022-12-29T03:35:16;2.78;;;0.50;;
47896;SDS011;39629;51.400;5.494;2022-12-29T03:40:21;0.98;;;0.38;;
47896;SDS011;39629;51.400;5.494;2022-12-29T03:50:28;1.40;;;0.40;;
47896;SDS011;39629;51.400;5.494;2022-12-29T03:55:30;2.33;;;0.40;;
47896;SDS011;39629;51.400;5.494;2022-12-29T04:00:31;1.55;;;0.28;;
47896;SDS011;39629;51.400;5.494;2022-12-29T04:05:35;1.95;;;0.35;;
47896;SDS011;39629;51.400;5.494;2022-12-29T04:10:37;2.30;;;0.30;;
47896;SDS011;39629;51.400;5.494;2022-12-29T04:15:40;3.33;;;0.30;;
47896;SDS011;39629;51.400;5.494;2022-12-29T04:20:45;2.60;;;0.30;;
47896;SDS011;39629;51.400;5.494;2022-12-29T04:26:04;2.30;;;0.30;;
47896;SDS011;39629;51.400;5.494;2022-12-29T04:31:09;3.92;;;0.68;;
47896;SDS011;39629;51.400;5.494;2022-12-29T04:36:15;2.85;;;0.45;;
47896;SDS011;39629;51.400;5.494;2022-12-29T04:41:17;2.25;;;0.40;;
47896;SDS011;39629;51.400;5.494;2022-12-29T04:46:19;2.20;;;0.50;;
47896;SDS011;39629;51.400;5.494;2022-12-29T04:51:43;4.15;;;0.63;;
47896;SDS011;39629;51.400;5.494;2022-12-29T04:56:46;3.53;;;0.50;;
47896;SDS011;39629;51.400;5.494;2022-12-29T05:01:50;0.87;;;0.30;;
47896;SDS011;39629;51.400;5.494;2022-12-29T05:06:53;1.88;;;0.35;;
47896;SDS011;39629;51.400;5.494;2022-12-29T05:11:55;3.55;;;0.40;;
47896;SDS011;39629;51.400;5.494;2022-12-29T05:16:56;3.15;;;0.45;;
47896;SDS011;39629;51.400;5.494;2022-12-29T05:22:00;1.02;;;0.30;;
47896;SDS011;39629;51.400;5.494;2022-12-29T05:27:04;2.88;;;0.40;;
47896;SDS011;39629;51.400;5.494;2022-12-29T05:32:25;3.05;;;0.57;;
47896;SDS011;39629;51.400;5.494;2022-12-29T05:37:29;7.35;;;0.60;;
47896;SDS011;39629;51.400;5.494;2022-12-29T05:42:31;3.53;;;0.50;;
47896;SDS011;39629;51.400;5.494;2022-12-29T05:47:48;1.23;;;0.38;;
47896;SDS011;39629;51.400;5.494;2022-12-29T05:53:09;3.15;;;0.70;;
47896;SDS011;39629;51.400;5.494;2022-12-29T05:58:12;4.10;;;0.45;;
47896;SDS011;39629;51.400;5.494;2022-12-29T06:03:14;5.57;;;0.95;;
47896;SDS011;39629;51.400;5.494;2022-12-29T06:08:18;2.22;;;0.50;;
47896;SDS011;39629;51.400;5.494;2022-12-29T06:13:21;4.03;;;0.50;;
47896;SDS011;39629;51.400;5.494;2022-12-29T06:18:24;3.38;;;0.52;;
47896;SDS011;39629;51.400;5.494;2022-12-29T06:23:27;2.58;;;0.40;;
47896;SDS011;39629;51.400;5.494;2022-12-29T06:28:29;7.00;;;1.13;;
47896;SDS011;39629;51.400;5.494;2022-12-29T06:33:31;3.33;;;0.50;;
47896;SDS011;39629;51.400;5.494;2022-12-29T06:38:34;3.03;;;0.68;;
47896;SDS011;39629;51.400;5.494;2022-12-29T06:43:36;2.50;;;0.55;;
47896;SDS011;39629;51.400;5.494;2022-12-29T06:48:48;4.00;;;0.52;;
47896;SDS011;39629;51.400;5.494;2022-12-29T06:53:51;2.22;;;0.40;;
47896;SDS011;39629;51.400;5.494;2022-12-29T06:58:52;4.90;;;0.50;;
47896;SDS011;39629;51.400;5.494;2022-12-29T07:03:54;4.15;;;0.60;;
47896;SDS011;39629;51.400;5.494;2022-12-29T07:08:57;3.40;;;0.65;;
47896;SDS011;39629;51.400;5.494;2022-12-29T07:13:59;2.67;;;0.52;;
47896;SDS011;39629;51.400;5.494;2022-12-29T07:19:00;3.75;;;0.95;;
47896;SDS011;39629;51.400;5.494;2022-12-29T07:24:04;3.13;;;0.68;;
47896;SDS011;39629;51.400;5.494;2022-12-29T07:29:06;5.60;;;0.82;;
47896;SDS011;39629;51.400;5.494;2022-12-29T07:34:08;4.40;;;0.75;;
47896;SDS011;39629;51.400;5.494;2022-12-29T07:39:10;4.00;;;0.82;;
47896;SDS011;39629;51.400;5.494;2022-12-29T07:44:12;3.70;;;0.60;;
47896;SDS011;39629;51.400;5.494;2022-12-29T07:49:32;4.22;;;0.63;;
47896;SDS011;39629;51.400;5.494;2022-12-29T07:54:35;3.60;;;0.70;;
47896;SDS011;39629;51.400;5.494;2022-12-29T07:59:37;5.90;;;0.75;;
47896;SDS011;39629;51.400;5.494;2022-12-29T08:04:39;4.72;;;0.75;;
47896;SDS011;39629;51.400;5.494;2022-12-29T08:09:42;2.60;;;0.45;;
47896;SDS011;39629;51.400;5.494;2022-12-29T08:14:43;3.30;;;0.73;;
47896;SDS011;39629;51.400;5.494;2022-12-29T08:19:45;7.57;;;0.80;;
47896;SDS011;39629;51.400;5.494;2022-12-29T08:24:48;5.25;;;0.68;;
47896;SDS011;39629;51.400;5.494;2022-12-29T08:29:49;6.18;;;1.40;;
47896;SDS011;39629;51.400;5.494;2022-12-29T08:34:51;5.15;;;0.80;;
47896;SDS011;39629;51.400;5.494;2022-12-29T08:39:54;4.55;;;0.77;;
47896;SDS011;39629;51.400;5.494;2022-12-29T08:44:56;5.25;;;0.80;;
47896;SDS011;39629;51.400;5.494;2022-12-29T08:49:57;4.03;;;0.85;;
47896;SDS011;39629;51.400;5.494;2022-12-29T08:55:00;4.72;;;0.55;;
47896;SDS011;39629;51.400;5.494;2022-12-29T09:00:04;3.53;;;0.80;;
47896;SDS011;39629;51.400;5.494;2022-12-29T09:05:06;2.55;;;0.60;;
47896;SDS011;39629;51.400;5.494;2022-12-29T09:10:11;3.50;;;0.65;;
47896;SDS011;39629;51.400;5.494;2022-12-29T09:15:12;4.90;;;0.57;;
47896;SDS011;39629;51.400;5.494;2022-12-29T09:20:16;5.22;;;0.98;;
47896;SDS011;39629;51.400;5.494;2022-12-29T09:25:21;4.20;;;0.60;;
47896;SDS011;39629;51.400;5.494;2022-12-29T09:30:24;5.63;;;0.70;;
47896;SDS011;39629;51.400;5.494;2022-12-29T09:35:26;3.90;;;0.70;;
47896;SDS011;39629;51.400;5.494;2022-12-29T09:40:29;4.93;;;0.60;;
47896;SDS011;39629;51.400;5.494;2022-12-29T09:45:34;4.40;;;0.77;;
47896;SDS011;39629;51.400;5.494;2022-12-29T09:50:41;5.82;;;0.82;;
47896;SDS011;39629;51.400;5.494;2022-12-29T09:55:50;2.55;;;0.52;;
47896;SDS011;39629;51.400;5.494;2022-12-29T10:00:56;6.45;;;0.70;;
47896;SDS011;39629;51.400;5.494;2022-12-29T10:06:04;5.47;;;1.05;;
47896;SDS011;39629;51.400;5.494;2022-12-29T10:11:14;8.90;;;1.10;;
47896;SDS011;39629;51.400;5.494;2022-12-29T10:16:26;5.60;;;0.60;;
47896;SDS011;39629;51.400;5.494;2022-12-29T10:21:41;1.95;;;0.63;;
47896;SDS011;39629;51.400;5.494;2022-12-29T10:26:54;6.45;;;0.90;;
47896;SDS011;39629;51.400;5.494;2022-12-29T10:31:59;4.00;;;0.75;;
47896;SDS011;39629;51.400;5.494;2022-12-29T10:37:05;3.10;;;0.70;;
47896;SDS011;39629;51.400;5.494;2022-12-29T10:42:15;2.63;;;0.55;;
47896;SDS011;39629;51.400;5.494;2022-12-29T10:47:23;5.18;;;0.85;;
47896;SDS011;39629;51.400;5.494;2022-12-29T10:52:28;2.65;;;0.70;;
47896;SDS011;39629;51.400;5.494;2022-12-29T10:57:33;5.90;;;1.10;;
47896;SDS011;39629;51.400;5.494;2022-12-29T11:02:47;3.63;;;0.90;;
47896;SDS011;39629;51.400;5.494;2022-12-29T11:08:11;7.40;;;0.82;;
47896;SDS011;39629;51.400;5.494;2022-12-29T11:13:18;5.95;;;1.10;;
47896;SDS011;39629;51.400;5.494;2022-12-29T11:18:26;6.10;;;0.90;;
47896;SDS011;39629;51.400;5.494;2022-12-29T11:23:34;5.57;;;0.80;;
47896;SDS011;39629;51.400;5.494;2022-12-29T11:28:38;2.45;;;0.57;;
47896;SDS011;39629;51.400;5.494;2022-12-29T11:33:42;4.85;;;0.80;;
47896;SDS011;39629;51.400;5.494;2022-12-29T11:38:46;8.75;;;1.02;;
47896;SDS011;39629;51.400;5.494;2022-12-29T11:43:51;2.95;;;0.75;;
47896;SDS011;39629;51.400;5.494;2022-12-29T11:48:55;5.03;;;0.90;;
47896;SDS011;39629;51.400;5.494;2022-12-29T11:54:00;3.60;;;0.80;;
47896;SDS011;39629;51.400;5.494;2022-12-29T12:04:36;5.38;;;0.90;;
47896;SDS011;39629;51.400;5.494;2022-12-29T12:09:40;4.55;;;0.90;;
47896;SDS011;39629;51.400;5.494;2022-12-29T12:14:50;3.33;;;0.95;;
47896;SDS011;39629;51.400;5.494;2022-12-29T12:20:20;4.72;;;0.70;;
47896;SDS011;39629;51.400;5.494;2022-12-29T12:25:29;5.70;;;1.15;;
47896;SDS011;39629;51.400;5.494;2022-12-29T12:30:37;5.28;;;0.93;;
47896;SDS011;39629;51.400;5.494;2022-12-29T12:35:43;5.38;;;1.00;;
47896;SDS011;39629;51.400;5.494;2022-12-29T12:40:55;6.28;;;0.85;;
47896;SDS011;39629;51.400;5.494;2022-12-29T12:46:06;8.45;;;0.95;;
47896;SDS011;39629;51.400;5.494;2022-12-29T12:51:28;8.88;;;1.40;;
47896;SDS011;39629;51.400;5.494;2022-12-29T13:02:17;4.17;;;0.83;;
47896;SDS011;39629;51.400;5.494;2022-12-29T13:07:32;5.10;;;1.02;;
47896;SDS011;39629;51.400;5.494;2022-12-29T13:12:42;3.08;;;0.90;;
47896;SDS011;39629;51.400;5.494;2022-12-29T13:17:56;6.45;;;0.90;;
47896;SDS011;39629;51.400;5.494;2022-12-29T13:23:06;4.97;;;0.93;;
47896;SDS011;39629;51.400;5.494;2022-12-29T13:28:15;7.25;;;1.45;;
47896;SDS011;39629;51.400;5.494;2022-12-29T13:33:23;6.88;;;0.80;;
47896;SDS011;39629;51.400;5.494;2022-12-29T13:38:34;6.45;;;1.20;;
47896;SDS011;39629;51.400;5.494;2022-12-29T13:43:39;5.25;;;1.05;;
47896;SDS011;39629;51.400;5.494;2022-12-29T13:48:44;5.30;;;0.85;;
47896;SDS011;39629;51.400;5.494;2022-12-29T13:53:55;6.72;;;1.23;;
47896;SDS011;39629;51.400;5.494;2022-12-29T13:59:05;4.82;;;0.90;;
47896;SDS011;39629;51.400;5.494;2022-12-29T14:04:23;5.22;;;1.35;;
47896;SDS011;39629;51.400;5.494;2022-12-29T14:09:31;5.32;;;1.35;;
47896;SDS011;39629;51.400;5.494;2022-12-29T14:14:42;5.15;;;1.30;;
47896;SDS011;39629;51.400;5.494;2022-12-29T14:19:45;4.18;;;0.95;;
47896;SDS011;39629;51.400;5.494;2022-12-29T14:24:48;3.70;;;0.65;;
47896;SDS011;39629;51.400;5.494;2022-12-29T14:29:51;4.40;;;0.80;;
47896;SDS011;39629;51.400;5.494;2022-12-29T14:34:54;6.97;;;1.02;;
47896;SDS011;39629;51.400;5.494;2022-12-29T14:40:04;6.28;;;0.95;;
47896;SDS011;39629;51.400;5.494;2022-12-29T14:45:08;10.85;;;1.15;;
47896;SDS011;39629;51.400;5.494;2022-12-29T14:50:38;7.07;;;1.10;;
47896;SDS011;39629;51.400;5.494;2022-12-29T14:55:43;3.27;;;0.80;;
47896;SDS011;39629;51.400;5.494;2022-12-29T15:00:46;8.93;;;1.00;;
47896;SDS011;39629;51.400;5.494;2022-12-29T15:05:50;6.47;;;0.80;;
47896;SDS011;39629;51.400;5.494;2022-12-29T15:10:54;6.60;;;1.20;;
47896;SDS011;39629;51.400;5.494;2022-12-29T15:15:58;4.88;;;0.90;;
47896;SDS011;39629;51.400;5.494;2022-12-29T15:21:01;6.63;;;1.10;;
47896;SDS011;39629;51.400;5.494;2022-12-29T15:26:05;7.90;;;1.20;;
47896;SDS011;39629;51.400;5.494;2022-12-29T15:31:10;3.53;;;0.85;;
47896;SDS011;39629;51.400;5.494;2022-12-29T15:36:19;4.32;;;0.80;;
47896;SDS011;39629;51.400;5.494;2022-12-29T15:41:26;2.58;;;0.68;;
47896;SDS011;39629;51.400;5.494;2022-12-29T15:46:53;5.90;;;0.85;;
47896;SDS011;39629;51.400;5.494;2022-12-29T15:51:56;3.17;;;0.77;;
47896;SDS011;39629;51.400;5.494;2022-12-29T15:56:58;5.20;;;0.75;;
47896;SDS011;39629;51.400;5.494;2022-12-29T16:02:00;3.00;;;0.70;;
47896;SDS011;39629;51.400;5.494;2022-12-29T16:07:05;2.67;;;0.60;;
47896;SDS011;39629;51.400;5.494;2022-12-29T16:12:23;1.92;;;0.60;;
47896;SDS011;39629;51.400;5.494;2022-12-29T16:17:28;8.40;;;0.95;;
47896;SDS011;39629;51.400;5.494;2022-12-29T16:27:35;2.90;;;0.60;;
47896;SDS011;39629;51.400;5.494;2022-12-29T16:32:44;3.67;;;0.73;;
47896;SDS011;39629;51.400;5.494;2022-12-29T16:37:49;1.77;;;0.52;;
47896;SDS011;39629;51.400;5.494;2022-12-29T16:43:18;3.25;;;0.60;;
47896;SDS011;39629;51.400;5.494;2022-12-29T16:48:23;3.75;;;0.88;;
47896;SDS011;39629;51.400;5.494;2022-12-29T16:53:29;5.15;;;1.30;;
47896;SDS011;39629;51.400;5.494;2022-12-29T16:58:34;5.35;;;1.15;;
47896;SDS011;39629;51.400;5.494;2022-12-29T17:03:38;6.47;;;1.08;;
47896;SDS011;39629;51.400;5.494;2022-12-29T17:08:43;5.80;;;1.00;;
47896;SDS011;39629;51.400;5.494;2022-12-29T17:13:46;4.57;;;0.82;;
47896;SDS011;39629;51.400;5.494;2022-12-29T17:18:47;5.72;;;1.10;;
47896;SDS011;39629;51.400;5.494;2022-12-29T17:23:50;5.57;;;0.70;;
47896;SDS011;39629;51.400;5.494;2022-12-29T17:28:52;8.60;;;1.20;;
47896;SDS011;39629;51.400;5.494;2022-12-29T17:33:53;5.32;;;1.10;;
47896;SDS011;39629;51.400;5.494;2022-12-29T17:38:57;5.30;;;1.05;;
47896;SDS011;39629;51.400;5.494;2022-12-29T17:43:58;6.28;;;0.90;;
47896;SDS011;39629;51.400;5.494;2022-12-29T17:49:01;4.85;;;1.02;;
47896;SDS011;39629;51.400;5.494;2022-12-29T17:54:04;7.22;;;1.10;;
47896;SDS011;39629;51.400;5.494;2022-12-29T17:59:08;5.03;;;0.98;;
47896;SDS011;39629;51.400;5.494;2022-12-29T18:04:13;4.93;;;1.08;;
47896;SDS011;39629;51.400;5.494;2022-12-29T18:09:18;7.53;;;1.50;;
47896;SDS011;39629;51.400;5.494;2022-12-29T18:14:21;9.52;;;1.38;;
47896;SDS011;39629;51.400;5.494;2022-12-29T18:19:24;8.77;;;1.90;;
47896;SDS011;39629;51.400;5.494;2022-12-29T18:24:27;6.07;;;1.13;;
47896;SDS011;39629;51.400;5.494;2022-12-29T18:29:29;10.32;;;1.48;;
47896;SDS011;39629;51.400;5.494;2022-12-29T18:34:30;5.88;;;0.90;;
47896;SDS011;39629;51.400;5.494;2022-12-29T18:39:33;6.90;;;1.27;;
47896;SDS011;39629;51.400;5.494;2022-12-29T18:44:36;8.65;;;1.80;;
47896;SDS011;39629;51.400;5.494;2022-12-29T18:49:38;7.97;;;1.80;;
47896;SDS011;39629;51.400;5.494;2022-12-29T18:54:41;5.82;;;1.40;;
47896;SDS011;39629;51.400;5.494;2022-12-29T18:59:42;8.60;;;1.60;;
47896;SDS011;39629;51.400;5.494;2022-12-29T19:04:44;7.40;;;1.38;;
47896;SDS011;39629;51.400;5.494;2022-12-29T19:09:47;12.52;;;2.05;;
47896;SDS011;39629;51.400;5.494;2022-12-29T19:14:48;10.98;;;1.50;;
47896;SDS011;39629;51.400;5.494;2022-12-29T19:19:50;8.45;;;1.42;;
47896;SDS011;39629;51.400;5.494;2022-12-29T19:24:53;9.05;;;1.67;;
47896;SDS011;39629;51.400;5.494;2022-12-29T19:29:54;11.93;;;1.88;;
47896;SDS011;39629;51.400;5.494;2022-12-29T19:34:56;11.63;;;1.80;;
47896;SDS011;39629;51.400;5.494;2022-12-29T19:39:59;8.23;;;1.67;;
47896;SDS011;39629;51.400;5.494;2022-12-29T19:45:00;5.47;;;1.60;;
47896;SDS011;39629;51.400;5.494;2022-12-29T19:50:03;6.55;;;1.63;;
47896;SDS011;39629;51.400;5.494;2022-12-29T19:55:08;9.85;;;1.75;;
47896;SDS011;39629;51.400;5.494;2022-12-29T20:00:12;9.50;;;1.25;;
47896;SDS011;39629;51.400;5.494;2022-12-29T20:05:15;8.73;;;1.50;;
47896;SDS011;39629;51.400;5.494;2022-12-29T20:10:19;8.75;;;1.60;;
47896;SDS011;39629;51.400;5.494;2022-12-29T20:15:21;5.47;;;1.35;;
47896;SDS011;39629;51.400;5.494;2022-12-29T20:20:22;12.75;;;1.40;;
47896;SDS011;39629;51.400;5.494;2022-12-29T20:25:25;8.98;;;1.40;;
47896;SDS011;39629;51.400;5.494;2022-12-29T20:30:29;8.82;;;1.08;;
47896;SDS011;39629;51.400;5.494;2022-12-29T20:35:30;8.32;;;1.30;;
47896;SDS011;39629;51.400;5.494;2022-12-29T20:40:33;8.40;;;1.30;;
47896;SDS011;39629;51.400;5.494;2022-12-29T20:45:35;10.70;;;2.05;;
47896;SDS011;39629;51.400;5.494;2022-12-29T20:50:37;8.00;;;1.23;;
47896;SDS011;39629;51.400;5.494;2022-12-29T20:55:40;5.40;;;1.13;;
47896;SDS011;39629;51.400;5.494;2022-12-29T21:00:42;6.65;;;1.30;;
47896;SDS011;39629;51.400;5.494;2022-12-29T21:05:43;4.30;;;1.20;;
47896;SDS011;39629;51.400;5.494;2022-12-29T21:10:46;5.78;;;1.27;;
47896;SDS011;39629;51.400;5.494;2022-12-29T21:15:53;9.05;;;1.40;;
47896;SDS011;39629;51.400;5.494;2022-12-29T21:20:56;8.63;;;1.38;;
47896;SDS011;39629;51.400;5.494;2022-12-29T21:26:00;7.20;;;1.15;;
47896;SDS011;39629;51.400;5.494;2022-12-29T21:31:05;5.55;;;1.45;;
47896;SDS011;39629;51.400;5.494;2022-12-29T21:36:08;9.82;;;1.30;;
47896;SDS011;39629;51.400;5.494;2022-12-29T21:41:12;7.38;;;1.40;;
47896;SDS011;39629;51.400;5.494;2022-12-29T21:46:15;7.65;;;1.33;;
47896;SDS011;39629;51.400;5.494;2022-12-29T21:51:17;8.82;;;1.20;;
47896;SDS011;39629;51.400;5.494;2022-12-29T21:56:37;5.20;;;1.38;;
47896;SDS011;39629;51.400;5.494;2022-12-29T22:01:39;6.78;;;1.55;;
47896;SDS011;39629;51.400;5.494;2022-12-29T22:06:58;6.15;;;1.73;;
47896;SDS011;39629;51.400;5.494;2022-12-29T22:12:20;7.68;;;1.73;;
47896;SDS011;39629;51.400;5.494;2022-12-29T22:17:42;5.78;;;1.02;;
47896;SDS011;39629;51.400;5.494;2022-12-29T22:22:45;9.98;;;1.20;;
47896;SDS011;39629;51.400;5.494;2022-12-29T22:27:48;9.48;;;1.42;;
47896;SDS011;39629;51.400;5.494;2022-12-29T22:32:50;9.23;;;1.60;;
47896;SDS011;39629;51.400;5.494;2022-12-29T22:37:52;7.03;;;1.20;;
47896;SDS011;39629;51.400;5.494;2022-12-29T22:42:55;12.60;;;2.22;;
47896;SDS011;39629;51.400;5.494;2022-12-29T22:47:56;7.40;;;1.30;;
47896;SDS011;39629;51.400;5.494;2022-12-29T22:52:58;9.25;;;1.20;;
47896;SDS011;39629;51.400;5.494;2022-12-29T22:58:02;6.22;;;1.00;;
47896;SDS011;39629;51.400;5.494;2022-12-29T23:03:03;3.45;;;1.10;;
47896;SDS011;39629;51.400;5.494;2022-12-29T23:08:05;8.35;;;1.35;;
47896;SDS011;39629;51.400;5.494;2022-12-29T23:13:08;7.32;;;1.60;;
47896;SDS011;39629;51.400;5.494;2022-12-29T23:18:09;10.55;;;1.45;;
47896;SDS011;39629;51.400;5.494;2022-12-29T23:23:11;6.65;;;1.48;;
47896;SDS011;39629;51.400;5.494;2022-12-29T23:28:14;3.40;;;0.90;;
47896;SDS011;39629;51.400;5.494;2022-12-29T23:33:15;4.78;;;1.10;;
47896;SDS011;39629;51.400;5.494;2022-12-29T23:38:17;8.57;;;1.50;;
47896;SDS011;39629;51.400;5.494;2022-12-29T23:43:20;6.80;;;1.17;;
47896;SDS011;39629;51.400;5.494;2022-12-29T23:48:21;7.15;;;1.52;;
47896;SDS011;39629;51.400;5.494;2022-12-29T23:53:23;5.20;;;1.00;;
47896;SDS011;39629;51.400;5.494;2022-12-29T23:58:26;7.22;;;1.25;;
